createdAt,value
2018-07-14T00:02:23.726Z,53.9
2018-07-14T00:12:22.971Z,53.8
2018-07-14T00:22:22.206Z,53.8
2018-07-14T00:32:21.451Z,53.8
2018-07-14T00:42:20.679Z,53.7
2018-07-14T00:52:19.915Z,53.7
2018-07-14T01:02:19.156Z,53.6
2018-07-14T01:12:18.388Z,53.6
2018-07-14T01:22:17.627Z,53.5
2018-07-14T01:32:16.866Z,53.5
2018-07-14T01:42:16.102Z,53.4
2018-07-14T01:52:15.338Z,53.4
2018-07-14T02:02:14.574Z,53.4
2018-07-14T02:12:13.865Z,53.4
2018-07-14T02:22:13.047Z,53.3
2018-07-14T02:32:12.284Z,53.3
2018-07-14T02:42:11.522Z,53.3
2018-07-14T02:52:10.765Z,53.3
2018-07-14T03:02:09.995Z,53.2
2018-07-14T03:12:09.288Z,53.2
2018-07-14T03:22:08.466Z,53.1
2018-07-14T03:32:07.704Z,53.1
2018-07-14T03:42:07.032Z,53.1
2018-07-14T03:52:06.177Z,53
2018-07-14T04:02:05.414Z,53
2018-07-14T04:12:04.700Z,52.9
2018-07-14T04:22:03.882Z,52.9
2018-07-14T04:32:03.155Z,52.9
2018-07-14T04:42:02.354Z,52.8
2018-07-14T04:52:01.592Z,52.4
2018-07-14T05:02:00.831Z,49.4
2018-07-14T05:12:00.066Z,48.8
2018-07-14T05:21:59.301Z,46.9
2018-07-14T05:31:58.539Z,42.8
2018-07-14T05:41:57.777Z,41.6
2018-07-14T05:51:57.067Z,39
2018-07-14T06:01:56.309Z,39.7
2018-07-14T06:11:55.498Z,40.1
2018-07-14T06:21:54.739Z,39.9
2018-07-14T06:31:53.985Z,40.1
2018-07-14T06:41:53.218Z,40.9
2018-07-14T06:51:52.460Z,41.4
2018-07-14T07:01:51.692Z,41.3
2018-07-14T07:11:50.931Z,41.5
2018-07-14T07:21:50.175Z,41.4
2018-07-14T07:31:49.413Z,42.3
2018-07-14T07:41:48.655Z,43
2018-07-14T07:51:47.895Z,43.4
2018-07-14T08:01:47.137Z,44.6
2018-07-14T08:11:46.382Z,45.5
2018-07-14T08:21:45.614Z,46.4
2018-07-14T08:31:44.906Z,47.2
2018-07-14T08:41:44.092Z,48
2018-07-14T08:51:43.331Z,48.6
2018-07-14T09:01:42.571Z,49.3
2018-07-14T09:11:41.808Z,49.9
2018-07-14T09:21:41.059Z,47.9
2018-07-14T09:31:40.289Z,47.8
2018-07-14T09:41:39.528Z,47.1
2018-07-14T09:51:38.772Z,44.6
2018-07-14T10:01:38.012Z,44.6
2018-07-14T10:11:37.253Z,43.7
2018-07-14T10:21:36.494Z,43.3
2018-07-14T10:31:35.786Z,43.2
2018-07-14T10:41:34.974Z,43.2
2018-07-14T10:51:34.233Z,44.1
2018-07-14T11:01:33.454Z,44.9
2018-07-14T11:11:32.696Z,45.4
2018-07-14T11:21:31.939Z,45.6
2018-07-14T11:31:31.181Z,45.8
2018-07-14T11:41:30.417Z,46.1
2018-07-14T11:51:29.658Z,46.6
2018-07-14T12:01:29.007Z,47
2018-07-14T12:11:28.140Z,47.4
2018-07-14T12:21:27.376Z,47.7
2018-07-14T12:31:26.616Z,48.2
2018-07-14T12:41:25.855Z,48.7
2018-07-14T12:51:25.098Z,49
2018-07-14T13:01:24.333Z,49.3
2018-07-14T13:11:23.573Z,49.6
2018-07-14T13:21:22.813Z,49.9
2018-07-14T13:31:22.052Z,50.1
2018-07-14T13:41:21.294Z,50.3
2018-07-14T13:51:20.530Z,50.4
2018-07-14T14:01:19.772Z,50.4
2018-07-14T14:11:19.104Z,50.6
2018-07-14T14:21:18.250Z,50.7
2018-07-14T14:31:17.500Z,50.8
2018-07-14T14:41:16.726Z,50.9
2018-07-14T14:51:15.969Z,51.1
2018-07-14T15:01:15.206Z,51.4
2018-07-14T15:11:14.443Z,51.6
2018-07-14T15:21:13.689Z,51.8
2018-07-14T15:31:12.928Z,51.8
2018-07-14T15:41:12.165Z,51.9
2018-07-14T15:51:11.409Z,49.9
2018-07-14T16:01:10.643Z,43.6
2018-07-14T16:11:09.888Z,37
2018-07-14T16:21:09.123Z,29.8
2018-07-14T16:31:08.366Z,30.2
2018-07-14T16:41:07.603Z,31.1
2018-07-14T16:51:06.842Z,31.6
2018-07-14T17:01:06.084Z,32.1
2018-07-14T17:11:05.318Z,32.3
2018-07-14T17:21:04.557Z,32.8
2018-07-14T17:31:03.796Z,32.5
2018-07-14T17:41:03.040Z,31.3
2018-07-14T17:51:02.279Z,30.9
2018-07-14T18:01:01.519Z,29.6
2018-07-14T18:11:00.760Z,28.3
2018-07-14T18:21:00.008Z,28.8
2018-07-14T18:30:59.243Z,28.9
2018-07-14T18:40:58.487Z,27.4
2018-07-14T18:50:57.778Z,25.3
2018-07-14T19:00:56.969Z,24.1
2018-07-14T19:10:56.215Z,24.1
2018-07-14T19:20:55.505Z,24.2
2018-07-14T19:30:54.687Z,24.1
2018-07-14T19:40:53.929Z,22.5
2018-07-14T19:50:53.190Z,22.6
2018-07-14T20:00:52.408Z,22.4
2018-07-14T20:10:51.645Z,22.4
2018-07-14T20:20:50.888Z,21.4
2018-07-14T20:30:50.125Z,21.5
2018-07-14T20:40:49.374Z,21.6
2018-07-14T20:50:48.609Z,21.6
2018-07-14T21:00:47.851Z,21.7
2018-07-14T21:10:47.089Z,21.8
2018-07-14T21:20:46.394Z,21.8
2018-07-14T21:30:45.563Z,21.9
2018-07-14T21:40:44.801Z,21.9
2018-07-14T21:50:44.108Z,22
2018-07-14T22:00:43.282Z,22
2018-07-14T22:10:42.575Z,22.1
2018-07-14T22:20:41.763Z,22.1
2018-07-14T22:30:40.996Z,22.2
2018-07-14T22:40:40.234Z,22.3
2018-07-14T22:50:39.473Z,22.3
2018-07-14T23:00:38.710Z,22.3
2018-07-14T23:10:37.950Z,22.4
2018-07-14T23:20:37.187Z,22.4
2018-07-14T23:30:36.424Z,22.5
2018-07-14T23:40:35.662Z,22.5
2018-07-14T23:50:34.900Z,22.6
